sensor_id;sensor_type;location;lat;lon;timestamp;pressure;altitude;pressure_sealevel;temperature;humidity
49915;BME280;35806;47.958;13.158;2023-01-28T00:01:45;94909.68;;;-1.00;55.36
49915;BME280;35806;47.958;13.158;2023-01-28T00:04:12;94911.63;;;-0.94;55.05
49915;BME280;35806;47.958;13.158;2023-01-28T00:06:40;94904.22;;;-0.66;54.42
49915;BME280;35806;47.958;13.158;2023-01-28T00:09:07;94904.06;;;-1.12;55.56
49915;BME280;35806;47.958;13.158;2023-01-28T00:11:35;94904.84;;;-1.05;55.26
49915;BME280;35806;47.958;13.158;2023-01-28T00:14:02;94903.33;;;-1.11;55.40
49915;BME280;35806;47.958;13.158;2023-01-28T00:16:30;94905.12;;;-1.32;55.45
49915;BME280;35806;47.958;13.158;2023-01-28T00:18:56;94904.16;;;-1.12;55.16
49915;BME280;35806;47.958;13.158;2023-01-28T00:21:24;94905.81;;;-0.51;54.13
49915;BME280;35806;47.958;13.158;2023-01-28T00:23:54;94908.85;;;-0.90;54.78
49915;BME280;35806;47.958;13.158;2023-01-28T00:26:22;94909.02;;;-0.90;54.76
49915;BME280;35806;47.958;13.158;2023-01-28T00:28:50;94903.87;;;-0.91;54.79
49915;BME280;35806;47.958;13.158;2023-01-28T00:31:19;94899.13;;;-0.77;54.37
49915;BME280;35806;47.958;13.158;2023-01-28T00:33:48;94903.96;;;-1.99;55.91
49915;BME280;35806;47.958;13.158;2023-01-28T00:36:17;94903.77;;;-1.13;54.82
49915;BME280;35806;47.958;13.158;2023-01-28T00:38:48;94902.19;;;-1.00;54.32
49915;BME280;35806;47.958;13.158;2023-01-28T00:41:22;94902.12;;;-1.49;55.11
49915;BME280;35806;47.958;13.158;2023-01-28T00:43:51;94900.30;;;-1.92;55.43
49915;BME280;35806;47.958;13.158;2023-01-28T00:46:19;94903.83;;;-1.26;54.86
49915;BME280;35806;47.958;13.158;2023-01-28T00:48:46;94908.16;;;-1.03;54.17
49915;BME280;35806;47.958;13.158;2023-01-28T00:51:15;94908.60;;;-0.32;53.15
49915;BME280;35806;47.958;13.158;2023-01-28T00:53:43;94906.76;;;-0.77;53.51
49915;BME280;35806;47.958;13.158;2023-01-28T00:56:13;94913.22;;;-1.47;54.89
49915;BME280;35806;47.958;13.158;2023-01-28T00:58:40;94916.01;;;-1.15;54.63
49915;BME280;35806;47.958;13.158;2023-01-28T01:01:09;94915.14;;;-1.15;54.70
49915;BME280;35806;47.958;13.158;2023-01-28T01:03:37;94914.12;;;-1.00;54.20
49915;BME280;35806;47.958;13.158;2023-01-28T01:06:05;94917.92;;;-1.04;54.48
49915;BME280;35806;47.958;13.158;2023-01-28T01:08:33;94917.19;;;-0.97;54.06
49915;BME280;35806;47.958;13.158;2023-01-28T01:11:01;94921.99;;;-1.09;54.30
49915;BME280;35806;47.958;13.158;2023-01-28T01:13:30;94925.86;;;-1.06;54.33
49915;BME280;35806;47.958;13.158;2023-01-28T01:16:02;94920.19;;;-0.85;54.29
49915;BME280;35806;47.958;13.158;2023-01-28T01:18:29;94925.35;;;-1.10;54.42
49915;BME280;35806;47.958;13.158;2023-01-28T01:20:56;94926.13;;;-0.86;53.97
49915;BME280;35806;47.958;13.158;2023-01-28T01:23:24;94928.52;;;-1.83;55.06
49915;BME280;35806;47.958;13.158;2023-01-28T01:25:52;94928.95;;;-0.90;54.41
49915;BME280;35806;47.958;13.158;2023-01-28T01:28:20;94929.70;;;-1.25;54.78
49915;BME280;35806;47.958;13.158;2023-01-28T01:30:48;94929.65;;;-2.02;57.85
49915;BME280;35806;47.958;13.158;2023-01-28T01:33:15;94934.08;;;-1.21;55.38
49915;BME280;35806;47.958;13.158;2023-01-28T01:35:43;94936.99;;;-1.32;55.45
49915;BME280;35806;47.958;13.158;2023-01-28T01:38:10;94932.16;;;-1.34;56.17
49915;BME280;35806;47.958;13.158;2023-01-28T01:40:37;94931.87;;;-1.68;56.55
49915;BME280;35806;47.958;13.158;2023-01-28T01:43:15;94931.03;;;-1.72;57.13
49915;BME280;35806;47.958;13.158;2023-01-28T01:45:43;94935.30;;;-1.67;56.82
49915;BME280;35806;47.958;13.158;2023-01-28T01:48:16;94934.82;;;-2.74;59.28
49915;BME280;35806;47.958;13.158;2023-01-28T01:50:51;94932.38;;;-1.80;57.75
49915;BME280;35806;47.958;13.158;2023-01-28T01:53:23;94935.11;;;-1.12;56.46
49915;BME280;35806;47.958;13.158;2023-01-28T01:55:53;94938.73;;;-1.26;56.55
49915;BME280;35806;47.958;13.158;2023-01-28T01:58:29;94940.68;;;-1.20;56.14
49915;BME280;35806;47.958;13.158;2023-01-28T02:15:38;94935.50;;;-0.77;53.10
49915;BME280;35806;47.958;13.158;2023-01-28T02:18:05;94938.08;;;-1.98;55.94
49915;BME280;35806;47.958;13.158;2023-01-28T02:20:41;94945.91;;;-1.23;55.25
49915;BME280;35806;47.958;13.158;2023-01-28T02:23:25;94942.65;;;-2.00;56.88
49915;BME280;35806;47.958;13.158;2023-01-28T02:26:07;94942.10;;;-2.26;57.63
49915;BME280;35806;47.958;13.158;2023-01-28T02:28:41;94942.05;;;-3.00;59.70
49915;BME280;35806;47.958;13.158;2023-01-28T02:31:14;94940.81;;;-3.07;60.10
49915;BME280;35806;47.958;13.158;2023-01-28T02:33:47;94942.47;;;-2.13;58.62
49915;BME280;35806;47.958;13.158;2023-01-28T02:36:23;94944.48;;;-2.02;57.99
49915;BME280;35806;47.958;13.158;2023-01-28T02:38:55;94943.33;;;-1.97;57.93
49915;BME280;35806;47.958;13.158;2023-01-28T02:41:28;94943.39;;;-1.56;57.03
49915;BME280;35806;47.958;13.158;2023-01-28T02:44:01;94942.38;;;-0.95;55.98
49915;BME280;35806;47.958;13.158;2023-01-28T02:46:37;94942.43;;;-1.61;56.50
49915;BME280;35806;47.958;13.158;2023-01-28T02:49:08;94943.87;;;-2.08;56.55
49915;BME280;35806;47.958;13.158;2023-01-28T02:51:47;94942.88;;;-1.04;55.31
49915;BME280;35806;47.958;13.158;2023-01-28T02:54:27;94941.94;;;-0.92;55.67
49915;BME280;35806;47.958;13.158;2023-01-28T02:57:08;94941.09;;;-1.06;55.40
49915;BME280;35806;47.958;13.158;2023-01-28T02:59:41;94940.13;;;-0.77;55.18
49915;BME280;35806;47.958;13.158;2023-01-28T03:02:15;94939.90;;;-1.00;55.04
49915;BME280;35806;47.958;13.158;2023-01-28T03:04:48;94944.99;;;-1.89;57.36
49915;BME280;35806;47.958;13.158;2023-01-28T03:07:19;94945.94;;;-2.65;58.97
49915;BME280;35806;47.958;13.158;2023-01-28T03:09:47;94945.96;;;-2.92;58.99
49915;BME280;35806;47.958;13.158;2023-01-28T03:12:18;94948.84;;;-2.93;59.87
49915;BME280;35806;47.958;13.158;2023-01-28T03:14:50;94948.77;;;-2.23;58.81
49915;BME280;35806;47.958;13.158;2023-01-28T03:17:21;94950.15;;;-2.79;59.18
49915;BME280;35806;47.958;13.158;2023-01-28T03:19:50;94948.88;;;-2.36;58.91
49915;BME280;35806;47.958;13.158;2023-01-28T03:22:18;94948.29;;;-2.24;58.74
49915;BME280;35806;47.958;13.158;2023-01-28T03:24:49;94950.43;;;-2.58;58.90
49915;BME280;35806;47.958;13.158;2023-01-28T03:27:23;94949.49;;;-2.28;59.52
49915;BME280;35806;47.958;13.158;2023-01-28T03:29:57;94950.83;;;-2.40;58.35
49915;BME280;35806;47.958;13.158;2023-01-28T03:32:25;94952.97;;;-3.07;59.84
49915;BME280;35806;47.958;13.158;2023-01-28T03:34:53;94951.82;;;-2.54;59.03
49915;BME280;35806;47.958;13.158;2023-01-28T03:37:20;94952.44;;;-1.92;57.69
49915;BME280;35806;47.958;13.158;2023-01-28T03:39:48;94956.49;;;-3.05;61.54
49915;BME280;35806;47.958;13.158;2023-01-28T03:42:15;94960.19;;;-2.98;60.90
49915;BME280;35806;47.958;13.158;2023-01-28T03:44:43;94962.65;;;-1.91;59.32
49915;BME280;35806;47.958;13.158;2023-01-28T03:47:11;94965.14;;;-2.56;59.59
49915;BME280;35806;47.958;13.158;2023-01-28T03:49:40;94967.84;;;-2.72;59.71
49915;BME280;35806;47.958;13.158;2023-01-28T03:52:07;94970.92;;;-2.03;58.49
49915;BME280;35806;47.958;13.158;2023-01-28T03:54:35;94974.21;;;-1.94;58.24
49915;BME280;35806;47.958;13.158;2023-01-28T03:57:03;94976.81;;;-3.06;61.22
49915;BME280;35806;47.958;13.158;2023-01-28T03:59:30;94970.92;;;-2.78;59.91
49915;BME280;35806;47.958;13.158;2023-01-28T04:01:58;94968.26;;;-2.22;58.58
49915;BME280;35806;47.958;13.158;2023-01-28T04:04:25;94970.88;;;-2.27;58.22
49915;BME280;35806;47.958;13.158;2023-01-28T04:06:58;94970.88;;;-2.25;58.24
49915;BME280;35806;47.958;13.158;2023-01-28T04:09:25;94970.35;;;-2.56;59.02
49915;BME280;35806;47.958;13.158;2023-01-28T04:11:58;94968.05;;;-3.25;61.08
49915;BME280;35806;47.958;13.158;2023-01-28T04:14:25;94974.81;;;-3.11;60.68
49915;BME280;35806;47.958;13.158;2023-01-28T04:16:52;94973.42;;;-2.06;58.47
49915;BME280;35806;47.958;13.158;2023-01-28T04:19:20;94973.56;;;-1.80;57.57
49915;BME280;35806;47.958;13.158;2023-01-28T04:21:48;94974.59;;;-1.63;57.10
49915;BME280;35806;47.958;13.158;2023-01-28T04:24:15;94977.09;;;-1.91;58.03
49915;BME280;35806;47.958;13.158;2023-01-28T04:27:03;94981.69;;;-0.95;56.41
49915;BME280;35806;47.958;13.158;2023-01-28T04:29:30;94980.56;;;-1.35;56.44
49915;BME280;35806;47.958;13.158;2023-01-28T04:31:57;94980.97;;;-0.74;55.63
49915;BME280;35806;47.958;13.158;2023-01-28T04:34:24;94989.46;;;-1.26;56.01
49915;BME280;35806;47.958;13.158;2023-01-28T04:36:51;94991.07;;;-0.68;55.00
49915;BME280;35806;47.958;13.158;2023-01-28T04:39:19;94989.30;;;-0.87;55.53
49915;BME280;35806;47.958;13.158;2023-01-28T04:41:46;94998.76;;;-1.33;56.17
49915;BME280;35806;47.958;13.158;2023-01-28T04:44:14;94998.12;;;-0.74;54.82
49915;BME280;35806;47.958;13.158;2023-01-28T04:46:41;95001.18;;;-0.26;53.70
49915;BME280;35806;47.958;13.158;2023-01-28T04:49:08;95007.55;;;-1.02;54.89
49915;BME280;35806;47.958;13.158;2023-01-28T04:51:36;95006.92;;;-1.18;54.26
49915;BME280;35806;47.958;13.158;2023-01-28T04:54:03;95011.23;;;-0.87;54.70
49915;BME280;35806;47.958;13.158;2023-01-28T04:56:31;95010.75;;;-0.68;54.29
49915;BME280;35806;47.958;13.158;2023-01-28T04:58:58;95010.99;;;-0.65;53.78
49915;BME280;35806;47.958;13.158;2023-01-28T05:01:26;95011.11;;;-0.96;54.70
49915;BME280;35806;47.958;13.158;2023-01-28T05:03:53;95011.19;;;-0.13;53.51
49915;BME280;35806;47.958;13.158;2023-01-28T05:06:21;95013.93;;;-0.80;54.49
49915;BME280;35806;47.958;13.158;2023-01-28T05:08:48;95015.91;;;-0.29;52.97
49915;BME280;35806;47.958;13.158;2023-01-28T05:11:15;95020.19;;;-0.58;54.23
49915;BME280;35806;47.958;13.158;2023-01-28T05:13:44;95023.23;;;-1.11;54.61
49915;BME280;35806;47.958;13.158;2023-01-28T05:16:11;95023.98;;;-0.87;54.88
49915;BME280;35806;47.958;13.158;2023-01-28T05:18:38;95023.66;;;-0.78;54.67
49915;BME280;35806;47.958;13.158;2023-01-28T05:21:06;95021.72;;;-0.54;54.43
49915;BME280;35806;47.958;13.158;2023-01-28T05:23:33;95018.32;;;-0.67;53.92
49915;BME280;35806;47.958;13.158;2023-01-28T05:26:00;95020.13;;;-0.68;54.50
49915;BME280;35806;47.958;13.158;2023-01-28T05:28:27;95018.48;;;-0.88;54.27
49915;BME280;35806;47.958;13.158;2023-01-28T05:30:54;95023.25;;;-0.95;54.57
49915;BME280;35806;47.958;13.158;2023-01-28T05:33:22;95022.86;;;-0.76;54.33
49915;BME280;35806;47.958;13.158;2023-01-28T05:35:49;95028.05;;;-0.57;54.41
49915;BME280;35806;47.958;13.158;2023-01-28T05:38:16;95026.81;;;-0.74;54.61
49915;BME280;35806;47.958;13.158;2023-01-28T05:40:44;95028.76;;;-0.83;54.41
49915;BME280;35806;47.958;13.158;2023-01-28T05:43:13;95028.73;;;-0.32;53.78
49915;BME280;35806;47.958;13.158;2023-01-28T05:45:41;95031.38;;;-1.06;54.75
49915;BME280;35806;47.958;13.158;2023-01-28T05:48:08;95034.83;;;-1.05;54.93
49915;BME280;35806;47.958;13.158;2023-01-28T05:50:35;95037.68;;;-0.67;54.73
49915;BME280;35806;47.958;13.158;2023-01-28T05:53:04;95039.34;;;-0.81;54.45
49915;BME280;35806;47.958;13.158;2023-01-28T05:55:31;95042.05;;;-0.56;54.43
49915;BME280;35806;47.958;13.158;2023-01-28T05:57:59;95044.42;;;-0.58;54.52
49915;BME280;35806;47.958;13.158;2023-01-28T06:00:27;95049.29;;;-0.63;54.40
49915;BME280;35806;47.958;13.158;2023-01-28T06:02:53;95048.65;;;-0.76;53.69
49915;BME280;35806;47.958;13.158;2023-01-28T06:05:21;95048.54;;;-0.79;53.06
49915;BME280;35806;47.958;13.158;2023-01-28T06:07:48;95050.82;;;-0.74;53.54
49915;BME280;35806;47.958;13.158;2023-01-28T06:10:16;95054.40;;;-0.66;54.12
49915;BME280;35806;47.958;13.158;2023-01-28T06:12:43;95057.03;;;-0.99;54.69
49915;BME280;35806;47.958;13.158;2023-01-28T06:15:11;95059.00;;;-1.04;54.85
49915;BME280;35806;47.958;13.158;2023-01-28T06:17:38;95061.66;;;-0.75;54.03
49915;BME280;35806;47.958;13.158;2023-01-28T06:20:07;95066.04;;;-0.62;54.06
49915;BME280;35806;47.958;13.158;2023-01-28T06:22:34;95067.21;;;-1.08;54.92
49915;BME280;35806;47.958;13.158;2023-01-28T06:25:01;95072.72;;;-1.53;55.68
49915;BME280;35806;47.958;13.158;2023-01-28T06:27:28;95080.62;;;-0.83;54.56
49915;BME280;35806;47.958;13.158;2023-01-28T06:29:56;95084.34;;;-1.32;54.66
49915;BME280;35806;47.958;13.158;2023-01-28T06:32:29;95083.07;;;-0.97;54.53
49915;BME280;35806;47.958;13.158;2023-01-28T06:34:56;95087.60;;;-0.75;54.15
49915;BME280;35806;47.958;13.158;2023-01-28T06:37:29;95090.16;;;-1.21;54.49
49915;BME280;35806;47.958;13.158;2023-01-28T06:39:56;95092.49;;;-0.53;54.29
49915;BME280;35806;47.958;13.158;2023-01-28T06:42:49;95092.48;;;-0.94;54.96
49915;BME280;35806;47.958;13.158;2023-01-28T06:45:16;95094.57;;;-1.14;54.89
49915;BME280;35806;47.958;13.158;2023-01-28T06:47:43;95096.46;;;-0.72;54.71
49915;BME280;35806;47.958;13.158;2023-01-28T06:50:11;95096.52;;;-1.94;56.48
49915;BME280;35806;47.958;13.158;2023-01-28T06:52:38;95100.38;;;-1.36;56.14
49915;BME280;35806;47.958;13.158;2023-01-28T06:55:06;95103.42;;;-1.27;55.50
49915;BME280;35806;47.958;13.158;2023-01-28T06:57:40;95106.90;;;-1.03;55.75
49915;BME280;35806;47.958;13.158;2023-01-28T07:00:09;95105.91;;;-0.74;55.02
49915;BME280;35806;47.958;13.158;2023-01-28T07:02:38;95106.13;;;-0.67;54.92
49915;BME280;35806;47.958;13.158;2023-01-28T07:05:05;95111.21;;;-0.99;55.51
49915;BME280;35806;47.958;13.158;2023-01-28T07:07:33;95114.66;;;-1.26;55.42
49915;BME280;35806;47.958;13.158;2023-01-28T07:09:59;95113.86;;;-0.92;55.62
49915;BME280;35806;47.958;13.158;2023-01-28T07:12:26;95117.75;;;-1.05;55.09
49915;BME280;35806;47.958;13.158;2023-01-28T07:14:54;95116.16;;;-1.03;54.91
49915;BME280;35806;47.958;13.158;2023-01-28T07:17:21;95119.22;;;-0.86;54.54
49915;BME280;35806;47.958;13.158;2023-01-28T07:19:48;95119.85;;;-1.05;54.87
49915;BME280;35806;47.958;13.158;2023-01-28T07:22:16;95121.00;;;-0.47;54.65
49915;BME280;35806;47.958;13.158;2023-01-28T07:24:43;95123.12;;;-0.57;54.87
49915;BME280;35806;47.958;13.158;2023-01-28T07:27:11;95122.94;;;-0.61;55.01
49915;BME280;35806;47.958;13.158;2023-01-28T07:29:39;95123.57;;;-0.34;54.70
49915;BME280;35806;47.958;13.158;2023-01-28T07:32:06;95125.43;;;-0.39;54.85
49915;BME280;35806;47.958;13.158;2023-01-28T07:34:33;95122.08;;;-0.62;54.31
49915;BME280;35806;47.958;13.158;2023-01-28T07:37:00;95122.43;;;-0.33;53.49
49915;BME280;35806;47.958;13.158;2023-01-28T07:39:27;95127.69;;;-0.73;54.30
49915;BME280;35806;47.958;13.158;2023-01-28T07:41:59;95129.61;;;-0.66;54.38
49915;BME280;35806;47.958;13.158;2023-01-28T07:44:26;95129.68;;;-0.65;54.15
49915;BME280;35806;47.958;13.158;2023-01-28T07:46:53;95128.78;;;-0.54;54.13
49915;BME280;35806;47.958;13.158;2023-01-28T07:49:21;95127.86;;;-0.51;54.03
49915;BME280;35806;47.958;13.158;2023-01-28T07:51:48;95135.01;;;-0.33;53.63
49915;BME280;35806;47.958;13.158;2023-01-28T07:54:15;95139.08;;;-0.24;53.36
49915;BME280;35806;47.958;13.158;2023-01-28T07:56:43;95136.95;;;-0.29;53.59
49915;BME280;35806;47.958;13.158;2023-01-28T07:59:10;95145.72;;;-0.26;53.64
49915;BME280;35806;47.958;13.158;2023-01-28T08:01:38;95146.21;;;-0.25;53.66
49915;BME280;35806;47.958;13.158;2023-01-28T08:04:05;95146.61;;;-0.15;53.72
49915;BME280;35806;47.958;13.158;2023-01-28T08:06:33;95150.37;;;0.05;53.44
49915;BME280;35806;47.958;13.158;2023-01-28T08:09:00;95150.09;;;-0.57;53.23
49915;BME280;35806;47.958;13.158;2023-01-28T08:11:28;95153.65;;;-0.43;52.95
49915;BME280;35806;47.958;13.158;2023-01-28T08:13:55;95157.36;;;-0.30;53.25
49915;BME280;35806;47.958;13.158;2023-01-28T08:16:22;95159.80;;;-1.08;53.42
49915;BME280;35806;47.958;13.158;2023-01-28T08:18:49;95165.16;;;-0.12;52.41
49915;BME280;35806;47.958;13.158;2023-01-28T08:21:16;95164.47;;;-0.16;52.65
49915;BME280;35806;47.958;13.158;2023-01-28T08:23:43;95163.00;;;0.13;52.42
49915;BME280;35806;47.958;13.158;2023-01-28T08:26:10;95168.66;;;0.21;52.37
49915;BME280;35806;47.958;13.158;2023-01-28T08:28:38;95174.03;;;0.19;52.42
49915;BME280;35806;47.958;13.158;2023-01-28T08:31:05;95174.09;;;0.50;51.28
49915;BME280;35806;47.958;13.158;2023-01-28T08:33:32;95173.68;;;0.09;52.27
49915;BME280;35806;47.958;13.158;2023-01-28T08:36:02;95169.86;;;0.71;51.52
49915;BME280;35806;47.958;13.158;2023-01-28T08:38:29;95169.42;;;0.32;51.23
49915;BME280;35806;47.958;13.158;2023-01-28T08:40:56;95170.17;;;0.78;50.77
49915;BME280;35806;47.958;13.158;2023-01-28T08:43:23;95167.89;;;0.65;49.44
49915;BME280;35806;47.958;13.158;2023-01-28T08:45:51;95172.22;;;0.95;49.94
49915;BME280;35806;47.958;13.158;2023-01-28T08:48:19;95175.74;;;0.39;50.95
49915;BME280;35806;47.958;13.158;2023-01-28T08:50:46;95175.27;;;0.05;52.03
49915;BME280;35806;47.958;13.158;2023-01-28T08:53:16;95172.20;;;0.73;50.30
49915;BME280;35806;47.958;13.158;2023-01-28T08:55:43;95180.36;;;-1.00;52.70
49915;BME280;35806;47.958;13.158;2023-01-28T08:58:12;95180.12;;;-0.45;52.26
49915;BME280;35806;47.958;13.158;2023-01-28T09:00:40;95180.14;;;-0.16;52.07
49915;BME280;35806;47.958;13.158;2023-01-28T09:03:08;95181.98;;;-0.45;52.86
49915;BME280;35806;47.958;13.158;2023-01-28T09:05:36;95181.64;;;0.28;51.94
49915;BME280;35806;47.958;13.158;2023-01-28T09:08:07;95181.76;;;0.85;51.21
49915;BME280;35806;47.958;13.158;2023-01-28T09:10:35;95183.28;;;-0.13;51.91
49915;BME280;35806;47.958;13.158;2023-01-28T09:13:04;95184.17;;;-0.43;52.96
49915;BME280;35806;47.958;13.158;2023-01-28T09:15:32;95189.58;;;-0.50;52.28
49915;BME280;35806;47.958;13.158;2023-01-28T09:18:00;95191.65;;;-1.58;55.42
49915;BME280;35806;47.958;13.158;2023-01-28T09:20:27;95195.22;;;-1.46;55.56
49915;BME280;35806;47.958;13.158;2023-01-28T09:22:54;95196.42;;;-1.75;57.07
49915;BME280;35806;47.958;13.158;2023-01-28T09:25:21;95198.53;;;-2.73;59.28
49915;BME280;35806;47.958;13.158;2023-01-28T09:27:49;95197.36;;;-3.20;60.40
49915;BME280;35806;47.958;13.158;2023-01-28T09:30:18;95195.47;;;-3.42;61.98
49915;BME280;35806;47.958;13.158;2023-01-28T09:32:49;95197.50;;;-2.62;59.83
49915;BME280;35806;47.958;13.158;2023-01-28T09:35:16;95198.12;;;-1.61;57.29
49915;BME280;35806;47.958;13.158;2023-01-28T09:37:44;95201.42;;;-2.06;58.63
49915;BME280;35806;47.958;13.158;2023-01-28T09:40:14;95198.51;;;-0.91;55.35
49915;BME280;35806;47.958;13.158;2023-01-28T09:42:55;95202.42;;;-1.24;55.38
49915;BME280;35806;47.958;13.158;2023-01-28T09:45:32;95205.84;;;-1.79;56.29
49915;BME280;35806;47.958;13.158;2023-01-28T09:48:04;95208.08;;;-1.49;55.59
49915;BME280;35806;47.958;13.158;2023-01-28T09:50:35;95207.94;;;-0.57;53.78
49915;BME280;35806;47.958;13.158;2023-01-28T09:53:06;95208.08;;;-0.57;54.52
49915;BME280;35806;47.958;13.158;2023-01-28T09:55:40;95204.00;;;0.32;53.00
49915;BME280;35806;47.958;13.158;2023-01-28T09:58:10;95201.93;;;0.33;51.75
49915;BME280;35806;47.958;13.158;2023-01-28T10:00:46;95199.25;;;0.52;51.77
49915;BME280;35806;47.958;13.158;2023-01-28T10:03:40;95197.84;;;0.68;51.70
49915;BME280;35806;47.958;13.158;2023-01-28T10:06:18;95194.26;;;0.31;50.67
49915;BME280;35806;47.958;13.158;2023-01-28T10:09:01;95189.93;;;0.34;51.32
49915;BME280;35806;47.958;13.158;2023-01-28T10:11:46;95184.55;;;-0.06;52.05
49915;BME280;35806;47.958;13.158;2023-01-28T10:14:46;95179.63;;;1.39;50.67
49915;BME280;35806;47.958;13.158;2023-01-28T10:17:20;95175.42;;;0.84;50.79
49915;BME280;35806;47.958;13.158;2023-01-28T10:19:52;95172.24;;;0.91;50.56
49915;BME280;35806;47.958;13.158;2023-01-28T10:22:23;95177.29;;;0.36;49.89
49915;BME280;35806;47.958;13.158;2023-01-28T10:24:55;95180.17;;;1.18;48.92
49915;BME280;35806;47.958;13.158;2023-01-28T10:27:27;95175.78;;;1.18;49.62
49915;BME280;35806;47.958;13.158;2023-01-28T10:29:55;95175.41;;;1.09;49.44
49915;BME280;35806;47.958;13.158;2023-01-28T10:32:29;95176.74;;;1.20;49.19
49915;BME280;35806;47.958;13.158;2023-01-28T10:34:57;95178.25;;;1.58;48.26
49915;BME280;35806;47.958;13.158;2023-01-28T10:37:25;95183.70;;;-0.70;51.61
49915;BME280;35806;47.958;13.158;2023-01-28T10:40:05;95182.52;;;0.25;50.30
49915;BME280;35806;47.958;13.158;2023-01-28T10:42:38;95186.56;;;0.43;50.91
49915;BME280;35806;47.958;13.158;2023-01-28T10:45:13;95190.00;;;0.32;51.02
49915;BME280;35806;47.958;13.158;2023-01-28T10:47:44;95185.28;;;0.98;49.69
49915;BME280;35806;47.958;13.158;2023-01-28T10:50:19;95188.95;;;0.00;51.17
49915;BME280;35806;47.958;13.158;2023-01-28T10:52:58;95185.91;;;0.04;51.18
49915;BME280;35806;47.958;13.158;2023-01-28T10:55:27;95185.49;;;0.90;50.16
49915;BME280;35806;47.958;13.158;2023-01-28T10:57:57;95181.07;;;0.83;49.85
49915;BME280;35806;47.958;13.158;2023-01-28T11:00:29;95183.32;;;-0.32;51.55
49915;BME280;35806;47.958;13.158;2023-01-28T11:02:58;95180.78;;;0.83;50.54
49915;BME280;35806;47.958;13.158;2023-01-28T11:05:27;95183.32;;;-0.18;52.16
49915;BME280;35806;47.958;13.158;2023-01-28T11:08:06;95183.74;;;0.56;50.96
49915;BME280;35806;47.958;13.158;2023-01-28T11:10:39;95183.17;;;0.84;51.00
49915;BME280;35806;47.958;13.158;2023-01-28T11:13:15;95179.77;;;-0.18;52.48
49915;BME280;35806;47.958;13.158;2023-01-28T11:15:46;95180.57;;;0.50;50.41
49915;BME280;35806;47.958;13.158;2023-01-28T11:18:17;95182.38;;;-0.27;50.81
49915;BME280;35806;47.958;13.158;2023-01-28T11:20:51;95180.68;;;1.00;50.38
49915;BME280;35806;47.958;13.158;2023-01-28T11:23:22;95181.09;;;1.07;49.48
49915;BME280;35806;47.958;13.158;2023-01-28T11:25:59;95181.78;;;1.39;48.50
49915;BME280;35806;47.958;13.158;2023-01-28T11:28:28;95186.92;;;1.11;48.76
49915;BME280;35806;47.958;13.158;2023-01-28T11:31:06;95183.11;;;0.75;49.45
49915;BME280;35806;47.958;13.158;2023-01-28T11:33:37;95184.18;;;1.80;47.82
49915;BME280;35806;47.958;13.158;2023-01-28T11:36:10;95181.67;;;1.43;48.03
49915;BME280;35806;47.958;13.158;2023-01-28T11:38:48;95184.49;;;1.83;47.95
49915;BME280;35806;47.958;13.158;2023-01-28T11:41:16;95186.82;;;0.97;49.08
49915;BME280;35806;47.958;13.158;2023-01-28T11:43:43;95190.90;;;0.76;49.51
49915;BME280;35806;47.958;13.158;2023-01-28T11:46:27;95188.70;;;0.78;50.26
49915;BME280;35806;47.958;13.158;2023-01-28T11:49:05;95190.18;;;0.06;49.94
49915;BME280;35806;47.958;13.158;2023-01-28T11:51:37;95189.31;;;0.75;50.03
49915;BME280;35806;47.958;13.158;2023-01-28T11:54:14;95193.24;;;0.08;51.60
49915;BME280;35806;47.958;13.158;2023-01-28T11:57:11;95193.41;;;0.15;50.93
49915;BME280;35806;47.958;13.158;2023-01-28T11:59:54;95190.32;;;0.39;50.42
49915;BME280;35806;47.958;13.158;2023-01-28T12:02:40;95191.29;;;0.51;50.06
49915;BME280;35806;47.958;13.158;2023-01-28T12:05:19;95191.03;;;0.77;50.50
49915;BME280;35806;47.958;13.158;2023-01-28T12:07:55;95192.73;;;0.55;50.51
49915;BME280;35806;47.958;13.158;2023-01-28T12:10:35;95189.94;;;0.71;49.61
49915;BME280;35806;47.958;13.158;2023-01-28T12:13:15;95190.94;;;0.89;50.66
49915;BME280;35806;47.958;13.158;2023-01-28T12:16:17;95194.28;;;0.54;51.31
49915;BME280;35806;47.958;13.158;2023-01-28T12:19:05;95194.35;;;-0.50;52.23
49915;BME280;35806;47.958;13.158;2023-01-28T12:21:46;95193.96;;;0.11;52.64
49915;BME280;35806;47.958;13.158;2023-01-28T12:24:25;95193.10;;;0.72;51.53
49915;BME280;35806;47.958;13.158;2023-01-28T12:27:01;95196.97;;;0.57;52.67
49915;BME280;35806;47.958;13.158;2023-01-28T12:29:37;95195.38;;;-0.45;54.51
49915;BME280;35806;47.958;13.158;2023-01-28T12:32:25;95197.41;;;-1.81;57.13
49915;BME280;35806;47.958;13.158;2023-01-28T12:35:13;95195.30;;;-1.56;56.45
49915;BME280;35806;47.958;13.158;2023-01-28T12:37:57;95195.12;;;-0.40;55.70
49915;BME280;35806;47.958;13.158;2023-01-28T12:40:39;95193.58;;;-1.55;57.14
49915;BME280;35806;47.958;13.158;2023-01-28T12:43:12;95200.89;;;-1.06;57.67
49915;BME280;35806;47.958;13.158;2023-01-28T12:45:44;95200.26;;;-0.28;55.71
49915;BME280;35806;47.958;13.158;2023-01-28T12:48:17;95201.77;;;-0.35;55.45
49915;BME280;35806;47.958;13.158;2023-01-28T12:50:48;95201.45;;;-1.01;55.30
49915;BME280;35806;47.958;13.158;2023-01-28T12:53:22;95205.80;;;0.01;54.10
49915;BME280;35806;47.958;13.158;2023-01-28T12:55:59;95209.94;;;0.33;53.14
49915;BME280;35806;47.958;13.158;2023-01-28T12:58:38;95206.35;;;-0.27;53.39
49915;BME280;35806;47.958;13.158;2023-01-28T13:01:20;95205.54;;;0.47;52.78
49915;BME280;35806;47.958;13.158;2023-01-28T13:03:54;95203.41;;;0.62;51.91
49915;BME280;35806;47.958;13.158;2023-01-28T13:06:28;95208.57;;;0.12;52.77
49915;BME280;35806;47.958;13.158;2023-01-28T13:09:00;95204.37;;;0.98;51.90
49915;BME280;35806;47.958;13.158;2023-01-28T13:11:33;95209.12;;;0.81;51.73
49915;BME280;35806;47.958;13.158;2023-01-28T13:14:02;95209.51;;;0.43;51.62
49915;BME280;35806;47.958;13.158;2023-01-28T13:16:31;95207.28;;;1.26;51.30
49915;BME280;35806;47.958;13.158;2023-01-28T13:19:20;95206.02;;;1.99;50.35
49915;BME280;35806;47.958;13.158;2023-01-28T13:21:48;95206.77;;;1.67;50.69
49915;BME280;35806;47.958;13.158;2023-01-28T13:24:22;95210.40;;;1.95;49.82
49915;BME280;35806;47.958;13.158;2023-01-28T13:26:57;95212.28;;;1.03;50.31